Moapa Valley, Nevada Weather observations

Data are for 10 minute period ending at time listed.
 Day   Time   Solar   Ave.   Ave.  Ave.  Vector  Max.   Baro.   Total    
  of    of     Rad.   Air    Rel.  Wind   Wind   Wind  Press.  Precip.   
Year   Day            Temp.  Hum.  Speed  Dir.   Gust                    
2015   (PST)  Kw/m2    F      %     mph   deg.    mph    mb.     in.     
-------------------------------------------------------------------------
  56   15:40   0.37   63.5    37    3.4   140     5.3   968.6    0.00 
  56   15:50   0.31   63.7    32    4.2   139     7.4   968.5    0.00 
  56   16:00   0.28   63.7    33    3.2   157     5.3   968.4    0.00 
  56   16:10   0.18   62.7    32    3.0   149     4.9   968.3    0.00 
  56   16:20   0.17   62.6    32    2.1   159     3.8   968.1    0.00 
  56   16:30   0.10   62.7    32    1.6   148     2.4   968.1    0.00 
  56   16:40   0.09   62.4    30    1.0   154     2.4   968.0    0.00 
  56   16:50   0.06   62.4    29    1.4   197     2.1   967.9    0.00 
  56   17:00   0.04   62.0    29    1.4   199     2.1   967.8    0.00 
  56   17:10   0.03   61.2    34    1.6    47     3.5   967.7    0.00 
  56   17:20   0.01   60.2    40    1.4    52     2.8   967.7    0.00 
  56   17:30   0.00   57.7    46    0.5   330     1.7   967.8    0.00 
  56   17:40   0.00   57.8    47    1.6    17     2.4   967.6    0.00 
  56   17:50   0.00   56.4    52    1.1   265     2.1   967.6    0.00 
  56   18:00   0.00   55.8    54    2.7   289     3.8   967.8    0.00 
  56   18:10   0.00   55.6    54    2.2   300     3.5   968.0    0.00 
  56   18:20   0.00   54.3    60    2.0    12     3.1   968.2    0.00 
  56   18:30   0.00   52.4    66    1.1   269     2.1   968.2    0.00 
  56   18:40   0.00   51.4    67    1.4   332     2.4   968.2    0.00 
  56   18:50   0.00   51.9    64    2.0   348     2.4   968.3    0.00 
  56   19:00   0.00   52.2    65    2.3   318     3.1   968.3    0.00 
  56   19:10   0.00   50.6    68    2.4   358     3.1   968.2    0.00 
  56   19:20   0.00   49.0    72    2.0   261     3.8   968.3    0.00 
  56   19:30   0.00   48.9    72    1.6   334     2.4   968.4    0.00 
  56   19:40   0.00   49.3    72    1.9     4     2.8   968.3    0.00 
  56   19:50   0.00   47.0    77    1.6   332     2.4   968.3    0.00 
  56   20:00   0.00   46.0    81    0.1   106     1.0   968.3    0.00 
  56   20:10   0.00   45.8    81    1.4   349     3.5   968.3    0.00 
  56   20:20   0.00   46.1    78    1.7   341     2.8   968.3    0.00 
  56   20:30   0.00   45.3    81    1.6   336     2.4   968.4    0.00 
  56   20:40   0.00   45.3    78    1.7   298     2.8   968.4    0.00 
  56   20:50   0.00   45.6    78    1.4   317     2.4   968.4    0.00 
  56   21:00   0.00   47.0    75    2.4   313     2.8   968.5    0.00 
  56   21:10   0.00   47.6    74    2.6   330     4.2   968.5    0.00 
  56   21:20   0.00   47.0    75    2.9   348     3.8   968.5    0.00 
  56   21:30   0.00   45.2    80    1.1   296     2.1   968.5    0.00 
  56   21:40   0.00   45.1    80    2.2   252     2.8   968.6    0.00 
  56   21:50   0.00   44.9    79    1.6   256     2.8   968.5    0.00 
  56   22:00   0.00   44.8    78    0.8   296     2.4   968.3    0.00 
  56   22:10   0.00   43.3    83    2.1   326     2.8   968.3    0.00 
  56   22:20   0.00   43.6    82    1.8   261     2.4   968.3    0.00 
  56   22:30   0.00   43.2    84    2.2   269     2.8   968.3    0.00 
  56   22:40   0.00   43.1    82    1.9   294     3.1   968.3    0.00 
  56   22:50   0.00   41.6    85    0.4    25     1.3   968.3    0.00 
  56   23:00   0.00   41.6    87    1.1   280     2.1   968.3    0.00 
  56   23:10   0.00   41.4    88    1.8   252     3.1   968.3    0.00 
  56   23:20   0.00   42.1    87    2.0   258     2.8   968.2    0.00 
  56   23:30   0.00   43.6    81    2.5   287     3.5   968.2    0.00 
  56   23:40   0.00   43.3    81    2.2   336     2.8   968.1    0.00 
  56   23:50   0.00   41.8    84    2.5   349     3.5   968.0    0.00 
  57    0:00   0.00   41.7    85    1.9   321     2.4   967.9    0.00 
  57    0:10   0.00   41.8    85    0.8   348     2.1   967.9    0.00 
  57    0:20   0.00   40.8    86    0.5   252     2.4   967.9    0.00 
  57    0:30   0.00   40.0    87    1.2   282     2.8   967.8    0.00 
  57    0:40   0.00   38.9    90    2.1   247     2.8   967.8    0.00 
  57    0:50   0.00   40.1    90    3.3   282     4.9   967.9    0.00 
  57    1:00   0.00   42.2    84    2.7   318     3.8   968.0    0.00 
  57    1:10   0.00   40.9    86    3.5     1     4.9   968.0    0.00 
  57    1:20   0.00   41.3    87    1.9   356     3.1   968.0    0.00 
  57    1:30   0.00   41.8    86    2.8    10     3.5   967.8    0.00 
  57    1:40   0.00   41.5    86    2.5   302     3.8   967.9    0.00 
  57    1:50   0.00   40.4    87    2.5   284     3.8   967.8    0.00 
  57    2:00   0.00   39.8    88    1.8   284     3.1   967.7    0.00 
  57    2:10   0.00   39.8    89    2.8   276     3.5   967.6    0.00 
  57    2:20   0.00   41.4    85    2.7   285     3.8   967.4    0.00 
  57    2:30   0.00   39.9    86    1.7   238     2.8   967.3    0.00 
  57    2:40   0.00   39.7    87    2.5   275     3.5   967.4    0.00 
  57    2:50   0.00   38.9    87    0.5   232     2.4   967.2    0.00 
  57    3:00   0.00   38.0    89    1.6   333     3.1   967.0    0.00 
  57    3:10   0.00   37.5    92    1.3   114     2.4   967.1    0.00 
  57    3:20   0.00   37.1    93    0.1   129     1.0   966.9    0.00 
  57    3:30   0.00   36.9    94    0.8   326     2.1   966.8    0.00 
  57    3:40   0.00   36.5    93    1.7   350     3.1   966.5    0.00 
  57    3:50   0.00   35.5    94    1.4    36     3.5   966.5    0.00 
  57    4:00   0.00   35.3    96    0.7   248     2.1   966.4    0.00 
  57    4:10   0.00   36.0    96    1.0   279     2.8   966.4    0.00 
  57    4:20   0.00   35.7    96    0.6   338     2.4   966.3    0.00 
  57    4:30   0.00   37.0    96    1.8   335     2.8   966.5    0.00 
  57    4:40   0.00   37.7    95    2.3   335     3.1   966.5    0.00 
  57    4:50   0.00   39.1    93    1.9   264     2.8   966.3    0.00 
  57    5:00   0.00   37.9    92    1.5   239     2.8   966.3    0.00 
  57    5:10   0.00   37.7    94    2.0   258     3.5   966.2    0.00 
  57    5:20   0.00   39.0    93    0.5   272     2.4   966.0    0.00 
  57    5:30   0.00   38.7    92    0.6    96     2.8   966.0    0.00 
  57    5:40   0.00   38.3    93    1.0    30     2.8   966.0    0.00 
  57    5:50   0.00   38.2    94    1.2   324     2.1   966.1    0.00 
  57    6:00   0.00   38.4    94    0.6     6     1.7   966.1    0.00 
  57    6:10   0.00   38.8    94    2.1   352     2.8   966.2    0.00 
  57    6:20   0.00   38.7    94    2.0   344     2.4   966.3    0.00 
  57    6:30   0.01   39.0    94    2.3   331     2.8   966.5    0.00 
  57    6:40   0.02   40.2    92    2.4   344     2.8   966.6    0.00 
  57    6:50   0.04   40.6    91    2.0   333     3.1   966.5    0.00 
  57    7:00   0.06   41.4    90    2.6   344     3.5   966.6    0.00 
  57    7:10   0.08   42.5    88    3.1   337     4.6   966.7    0.00 
  57    7:20   0.11   43.8    85    2.1   318     3.5   966.7    0.00 
  57    7:30   0.12   44.5    84    2.0   296     3.1   966.8    0.00 
  57    7:40   0.13   44.8    84    1.8   242     2.4   966.8    0.00 
  57    7:50   0.17   45.3    82    0.9   246     2.1   966.7    0.00 
  57    8:00   0.18   46.6    79    0.4   270     1.7   966.7    0.00 
  57    8:10   0.20   47.0    77    1.3   269     2.8   966.8    0.00 
  57    8:20   0.19   47.5    77    2.5   281     3.5   966.9    0.00 
  57    8:30   0.27   48.2    76    2.3   266     3.1   966.8    0.00 
  57    8:40   0.28   49.2    74    1.9   248     2.8   966.7    0.00 
  57    8:50   0.31   49.9    72    2.2   266     3.1   966.7    0.00 
  57    9:00   0.28   50.5    70    2.0   304     3.1   966.8    0.00 
  57    9:10   0.28   51.4    67    2.1   296     3.1   966.7    0.00 
  57    9:20   0.45   52.1    65    1.8   301     3.5   966.6    0.00 
  57    9:30   0.67   54.1    60    2.0   338     3.5   966.7    0.00 
  57    9:40   0.74   55.0    59    2.9   334     4.6   966.7    0.00 
  57    9:50   0.78   56.4    55    2.1   346     4.6   966.6    0.00 
  57   10:00   0.64   57.1    54    2.6     8     4.9   966.7    0.00 
  57   10:10   0.43   56.0    53    2.5    29     4.2   966.7    0.00 
  57   10:20   0.67   57.2    50    1.5   101     2.4   966.6    0.00 
  57   10:30   0.79   59.5    50    2.0   158     3.5   966.6    0.00 
  57   10:40   0.75   59.2    48    2.1   128     4.2   966.5    0.00 
  57   10:50   0.88   61.4    40    1.7   276     3.1   966.3    0.00 
  57   11:00   0.87   62.1    39    2.2   234     4.9   966.0    0.00 
  57   11:10   0.88   62.2    41    2.6   103     6.0   965.7    0.00 
  57   11:20   0.88   61.5    44    3.2   133     5.3   965.5    0.00 
  57   11:30   0.88   61.7    42    3.0   120     4.2   965.2    0.00 
  57   11:40   0.89   62.7    36    2.6    51     4.9   965.0    0.00 
  57   11:50   0.90   62.9    37    2.5    80     4.9   964.8    0.00 
  57   12:00   0.90   63.9    37    2.3    56     4.2   964.6    0.00 
  57   12:10   0.89   63.8    38    3.8    90     6.7   964.3    0.00 
  57   12:20   0.82   63.9    37    3.5    95     7.1   964.1    0.00 
  57   12:30   0.76   63.8    38    2.7   150     4.9   964.1    0.00 
  57   12:40   0.87   64.8    33    2.7   218     6.0   963.9    0.00 
  57   12:50   0.91   66.1    33    3.1   116     6.0   963.7    0.00 
  57   13:00   0.88   65.8    36    2.8   126     6.3   963.5    0.00 
  57   13:10   0.83   65.8    38    4.0   170     6.3   963.2    0.00 
  57   13:20   0.81   66.0    37    3.5   162     6.0   963.0    0.00 
  57   13:30   0.79   66.5    34    2.5   137     4.9   962.8    0.00 
  57   13:40   0.77   66.2    34    3.9   147     7.1   962.6    0.00 
  57   13:50   0.74   66.4    34    4.0   155     6.3   962.3    0.00 
  57   14:00   0.72   66.8    34    3.6   153     7.4   962.2    0.00 
  57   14:10   0.69   66.6    34    4.5   150     7.4   962.1    0.00 
  57   14:20   0.66   66.4    34    5.1   162     8.5   962.1    0.00 
  57   14:30   0.63   66.7    33    3.9   154     6.0   961.9    0.00 
  57   14:40   0.60   66.9    32    4.2   130     7.4   961.8    0.00 
  57   14:50   0.57   66.8    32    4.7   147     7.8   961.6    0.00 
  57   15:00   0.53   66.9    33    5.2   147     8.1   961.4    0.00 
  57   15:10   0.50   66.7    34    5.2   152     7.8   961.4    0.00 
  57   15:20   0.46   66.6    32    5.1   154     8.1   961.2    0.00 
  57   15:30   0.42   66.6    29    6.1   143     8.5   961.2    0.00 

Return to Moapa Valley graphs page.


Western Regional Climate Center,wrcc@dri.edu